Terminal Aerodrome Forecast
Issued by NWS

Home | Current Version | Previous Version | Graphics & Text | Print | Product List | Glossary On
Versions: 1 2 3 4 5 6 7 8 9 10 11 12 13 14 15 16 17 18 19
000
FTUS43 KGRB 271600 AAB
TAFATW
TAF AMD
KATW 271623Z 2716/2812 30011G20KT P6SM VCSH SCT035 BKN080
      TEMPO 2717/2720 3SM -TSRA BR SCT020 BKN030CB
     FM272200 36014G19KT P6SM SCT015 BKN040
     FM280000 35012KT P6SM BKN100
     FM280300 36011KT P6SM SKC=

USA.gov is the U.S. government's official web portal to all federal, state and local government web resources and services.